createdAt,value
2017-11-10T00:01:28.606Z,35.25
2017-11-10T00:03:56.773Z,35.45
2017-11-10T00:06:24.915Z,36.13
2017-11-10T00:08:53.105Z,33.42
2017-11-10T00:11:21.510Z,35.67
2017-11-10T00:13:49.677Z,35.25
2017-11-10T00:16:17.823Z,34.40
2017-11-10T00:18:45.992Z,31.37
2017-11-10T00:21:14.135Z,32.25
2017-11-10T00:23:42.854Z,30.48
2017-11-10T00:26:11.230Z,30.10
2017-11-10T00:28:39.375Z,32.75
2017-11-10T00:31:07.569Z,32.60
2017-11-10T00:33:35.760Z,32.45
2017-11-10T00:36:03.923Z,31.45
2017-11-10T00:38:32.104Z,32.97
2017-11-10T00:41:00.264Z,33.83
2017-11-10T00:43:28.416Z,30.52
2017-11-10T00:45:56.628Z,30.40
2017-11-10T00:48:25.579Z,31.77
2017-11-10T00:50:53.778Z,30.53
2017-11-10T00:53:22.018Z,30.23
2017-11-10T00:55:50.188Z,30.10
2017-11-10T00:58:18.409Z,29.33
2017-11-10T01:00:46.616Z,30.33
2017-11-10T01:03:14.776Z,31.67
2017-11-10T01:05:42.936Z,31.70
2017-11-10T01:08:11.084Z,30.83
2017-11-10T01:10:39.650Z,33.50
2017-11-10T01:13:07.824Z,34.40
2017-11-10T01:15:35.996Z,30.52
2017-11-10T01:18:04.602Z,33.13
2017-11-10T01:20:35.281Z,31.90
2017-11-10T01:23:04.208Z,33.65
2017-11-10T01:25:32.380Z,34.85
2017-11-10T01:28:00.537Z,32.72
2017-11-10T01:30:28.732Z,30.23
2017-11-10T01:32:56.972Z,34.67
2017-11-10T01:35:25.892Z,30.83
2017-11-10T01:37:54.062Z,33.17
2017-11-10T01:40:22.477Z,30.50
2017-11-10T01:42:50.657Z,32.95
2017-11-10T01:45:18.808Z,33.28
2017-11-10T01:47:46.968Z,29.70
2017-11-10T01:50:15.111Z,34.80
2017-11-10T01:52:44.039Z,34.05
2017-11-10T01:55:12.194Z,35.03
2017-11-10T01:57:40.364Z,37.90
2017-11-10T02:00:08.536Z,34.88
2017-11-10T02:02:36.705Z,37.47
2017-11-10T02:05:05.488Z,37.53
2017-11-10T02:07:33.665Z,40.80
2017-11-10T02:10:01.816Z,39.65
2017-11-10T02:12:30.809Z,38.90
2017-11-10T02:14:59.745Z,38.92
2017-11-10T02:17:27.934Z,39.40
2017-11-10T02:19:56.106Z,41.92
2017-11-10T02:22:24.320Z,38.30
2017-11-10T02:24:53.236Z,39.90
2017-11-10T02:27:21.383Z,41.37
2017-11-10T02:29:50.323Z,42.92
2017-11-10T02:32:18.476Z,38.35
2017-11-10T02:34:51.564Z,42.33
2017-11-10T02:37:19.720Z,47.05
2017-11-10T02:39:47.899Z,41.90
2017-11-10T02:42:16.061Z,42.15
2017-11-10T02:44:45.115Z,39.25
2017-11-10T02:47:13.277Z,42.53
2017-11-10T02:49:41.452Z,40.95
2017-11-10T02:52:09.600Z,36.30
2017-11-10T02:54:37.778Z,39.47
2017-11-10T02:57:05.946Z,39.08
2017-11-10T02:59:34.128Z,39.95
2017-11-10T03:02:02.288Z,36.90
2017-11-10T03:04:30.472Z,36.80
2017-11-10T03:06:58.644Z,37.95
2017-11-10T03:09:26.817Z,39.92
2017-11-10T03:11:54.979Z,38.25
2017-11-10T03:14:23.163Z,38.45
2017-11-10T03:16:51.321Z,38.30
2017-11-10T03:19:19.535Z,39.22
2017-11-10T03:21:47.709Z,35.63
2017-11-10T03:24:15.880Z,38.50
2017-11-10T03:26:44.099Z,42.45
2017-11-10T03:29:12.700Z,36.22
2017-11-10T03:31:40.869Z,38.40
2017-11-10T03:34:09.020Z,39.08
2017-11-10T03:36:37.962Z,38.20
2017-11-10T03:39:06.120Z,38.03
2017-11-10T03:41:34.296Z,43.78
2017-11-10T03:44:02.459Z,36.17
2017-11-10T03:46:30.652Z,41.00
2017-11-10T03:48:58.812Z,35.72
2017-11-10T03:51:26.982Z,40.47
2017-11-10T03:53:55.182Z,37.47
2017-11-10T03:56:23.353Z,37.60
2017-11-10T03:58:51.513Z,41.37
2017-11-10T04:01:19.695Z,34.85
2017-11-10T04:03:47.851Z,38.92
2017-11-10T04:06:16.012Z,39.63
2017-11-10T04:08:44.167Z,35.20
2017-11-10T04:11:12.369Z,39.65
2017-11-10T04:13:40.516Z,37.30
2017-11-10T04:16:08.667Z,35.33
2017-11-10T04:18:37.601Z,36.78
2017-11-10T04:21:05.760Z,32.58
2017-11-10T04:23:33.946Z,33.83
2017-11-10T04:26:02.468Z,36.97
2017-11-10T04:28:30.656Z,35.60
2017-11-10T04:30:59.575Z,34.92
2017-11-10T04:33:27.748Z,35.13
2017-11-10T04:35:55.897Z,35.25
2017-11-10T04:38:24.080Z,37.60
2017-11-10T04:40:52.234Z,34.45
2017-11-10T04:43:21.164Z,35.92
2017-11-10T04:45:49.512Z,35.90
2017-11-10T04:48:18.456Z,36.67
2017-11-10T04:50:46.633Z,35.72
2017-11-10T04:53:14.818Z,37.67
2017-11-10T04:55:42.998Z,36.47
2017-11-10T04:58:11.172Z,35.05
2017-11-10T05:00:39.323Z,37.85
2017-11-10T05:03:07.496Z,38.80
2017-11-10T05:05:35.646Z,38.65
2017-11-10T05:08:03.827Z,40.75
2017-11-10T05:10:31.996Z,38.85
2017-11-10T05:13:00.153Z,42.58
2017-11-10T05:15:28.354Z,40.60
2017-11-10T05:17:56.511Z,39.83
2017-11-10T05:20:24.692Z,39.03
2017-11-10T05:22:52.852Z,44.78
2017-11-10T05:25:21.580Z,42.72
2017-11-10T05:27:49.740Z,40.65
2017-11-10T05:30:17.918Z,42.33
2017-11-10T05:32:46.077Z,38.25
2017-11-10T05:35:14.253Z,38.47
2017-11-10T05:37:42.405Z,40.12
2017-11-10T05:40:10.576Z,42.78
2017-11-10T05:42:38.773Z,46.65
2017-11-10T05:45:06.964Z,41.83
2017-11-10T05:47:35.134Z,41.53
2017-11-10T05:50:03.317Z,40.58
2017-11-10T05:52:32.244Z,38.72
2017-11-10T05:55:00.418Z,38.28
2017-11-10T05:57:28.580Z,34.60
2017-11-10T05:59:56.762Z,41.53
2017-11-10T06:02:24.916Z,38.35
2017-11-10T06:04:53.856Z,38.20
2017-11-10T06:07:22.022Z,39.50
2017-11-10T06:09:50.220Z,38.17
2017-11-10T06:12:18.372Z,36.05
2017-11-10T06:14:46.537Z,36.60
2017-11-10T06:17:14.729Z,34.72
2017-11-10T06:19:42.892Z,38.58
2017-11-10T06:22:11.060Z,34.65
2017-11-10T06:24:39.214Z,37.03
2017-11-10T06:27:07.409Z,36.60
2017-11-10T06:29:35.603Z,35.53
2017-11-10T06:32:03.773Z,36.30
2017-11-10T06:34:31.937Z,36.83
2017-11-10T06:37:00.113Z,38.58
2017-11-10T06:39:28.262Z,38.65
2017-11-10T06:41:56.438Z,39.00
2017-11-10T06:44:24.597Z,38.30
2017-11-10T06:46:52.801Z,36.45
2017-11-10T06:49:20.963Z,37.05
2017-11-10T06:51:49.149Z,35.97
2017-11-10T06:54:17.336Z,35.83
2017-11-10T06:56:45.583Z,35.10
2017-11-10T06:59:13.731Z,29.55
2017-11-10T07:01:41.897Z,35.00
2017-11-10T07:04:10.064Z,33.20
2017-11-10T07:06:38.997Z,32.83
2017-11-10T07:09:07.645Z,35.10
2017-11-10T07:11:35.817Z,34.05
2017-11-10T07:14:03.981Z,33.20
2017-11-10T07:16:32.924Z,34.25
2017-11-10T07:19:01.085Z,29.98
2017-11-10T07:21:29.260Z,33.03
2017-11-10T07:23:57.905Z,28.12
2017-11-10T07:26:26.084Z,31.90
2017-11-10T07:28:54.232Z,32.22
2017-11-10T07:31:23.195Z,31.77
2017-11-10T07:33:51.363Z,31.43
2017-11-10T07:36:19.546Z,29.23
2017-11-10T07:38:47.709Z,31.27
2017-11-10T07:41:15.879Z,28.95
2017-11-10T07:43:44.052Z,29.00
2017-11-10T07:46:12.908Z,29.60
2017-11-10T07:48:41.085Z,27.75
2017-11-10T07:51:09.247Z,28.08
2017-11-10T07:53:37.413Z,30.42
2017-11-10T07:56:05.572Z,27.83
2017-11-10T07:58:34.583Z,28.77
2017-11-10T08:01:02.741Z,29.25
2017-11-10T08:03:32.301Z,27.13
2017-11-10T08:06:00.883Z,25.20
2017-11-10T08:08:29.160Z,27.67
2017-11-10T08:10:57.314Z,27.00
2017-11-10T08:13:25.489Z,23.42
2017-11-10T08:15:53.646Z,26.15
2017-11-10T08:18:21.813Z,27.27
2017-11-10T08:20:49.981Z,27.20
2017-11-10T08:23:18.153Z,24.27
2017-11-10T08:25:46.310Z,23.95
2017-11-10T08:28:15.247Z,27.75
2017-11-10T08:30:43.440Z,27.87
2017-11-10T08:33:11.618Z,27.10
2017-11-10T08:35:39.772Z,25.20
2017-11-10T08:38:07.944Z,23.63
2017-11-10T08:40:36.084Z,26.00
2017-11-10T08:43:04.255Z,26.43
2017-11-10T08:45:32.420Z,24.70
2017-11-10T08:48:00.596Z,27.27
2017-11-10T08:50:28.812Z,26.65
2017-11-10T08:52:56.996Z,26.87
2017-11-10T08:55:25.165Z,27.65
2017-11-10T08:57:53.356Z,25.40
2017-11-10T09:00:21.509Z,25.55
2017-11-10T09:02:49.664Z,25.05
2017-11-10T09:05:17.838Z,26.83
2017-11-10T09:07:45.996Z,24.05
2017-11-10T09:10:14.167Z,24.92
2017-11-10T09:12:42.324Z,24.10
2017-11-10T09:15:10.507Z,24.83
2017-11-10T09:17:38.660Z,22.00
2017-11-10T09:20:07.592Z,23.12
2017-11-10T09:22:35.749Z,22.43
2017-11-10T09:25:03.937Z,25.27
2017-11-10T09:27:32.092Z,23.10
2017-11-10T09:30:06.752Z,22.25
2017-11-10T09:35:39.387Z,21.80
2017-11-10T09:38:08.302Z,22.83
2017-11-10T09:40:42.980Z,21.35
2017-11-10T09:43:16.742Z,19.10
2017-11-10T09:45:45.220Z,18.60
2017-11-10T09:48:19.017Z,19.50
2017-11-10T09:50:52.801Z,21.35
2017-11-10T09:56:33.167Z,19.15
2017-11-10T09:59:05.089Z,18.58
2017-11-10T10:01:38.964Z,18.15
2017-11-10T10:04:12.647Z,20.35
2017-11-10T10:06:47.312Z,18.70
2017-11-10T10:09:17.614Z,17.70
2017-11-10T10:11:52.015Z,19.73
2017-11-10T10:17:30.022Z,16.83
2017-11-10T10:23:10.120Z,16.10
2017-11-10T10:25:38.292Z,15.90
2017-11-10T10:28:06.452Z,17.12
2017-11-10T10:30:35.402Z,15.52
2017-11-10T10:33:03.564Z,16.73
2017-11-10T10:35:31.751Z,14.87
2017-11-10T10:38:00.017Z,16.35
2017-11-10T10:40:28.168Z,16.35
2017-11-10T10:42:56.345Z,15.32
2017-11-10T10:45:24.506Z,16.60
2017-11-10T10:47:52.714Z,16.15
2017-11-10T10:50:20.864Z,16.87
2017-11-10T10:52:49.059Z,16.87
2017-11-10T10:55:17.207Z,16.00
2017-11-10T10:57:45.388Z,15.53
2017-11-10T11:00:13.550Z,14.85
2017-11-10T11:02:41.736Z,17.30
2017-11-10T11:05:09.897Z,15.95
2017-11-10T11:07:38.079Z,16.43
2017-11-10T11:10:06.470Z,14.43
2017-11-10T11:12:34.654Z,14.30
2017-11-10T11:15:02.831Z,15.27
2017-11-10T11:17:30.993Z,14.63
2017-11-10T11:19:59.144Z,16.13
2017-11-10T11:22:28.321Z,14.53
2017-11-10T11:24:56.524Z,15.40
2017-11-10T11:27:24.672Z,14.10
2017-11-10T11:29:52.887Z,14.80
2017-11-10T11:32:21.045Z,14.87
2017-11-10T11:34:49.232Z,14.20
2017-11-10T11:37:17.372Z,15.00
2017-11-10T11:39:45.824Z,13.90
2017-11-10T11:42:13.993Z,13.23
2017-11-10T11:44:43.567Z,13.20
2017-11-10T11:47:11.727Z,13.57
2017-11-10T11:49:40.217Z,14.40
2017-11-10T11:52:08.378Z,13.93
2017-11-10T11:54:36.578Z,14.03
2017-11-10T11:57:04.740Z,12.50
2017-11-10T11:59:32.913Z,13.30
2017-11-10T12:02:01.069Z,13.73
2017-11-10T12:04:29.239Z,12.70
2017-11-10T12:06:59.120Z,12.53
2017-11-10T12:09:27.293Z,13.20
2017-11-10T12:11:56.285Z,13.00
2017-11-10T12:14:24.445Z,11.53
2017-11-10T12:16:53.366Z,12.17
2017-11-10T12:19:21.550Z,11.90
2017-11-10T12:21:49.707Z,13.87
2017-11-10T12:24:17.872Z,11.87
2017-11-10T12:26:46.024Z,11.83
2017-11-10T12:29:14.962Z,12.40
2017-11-10T12:31:43.131Z,11.43
2017-11-10T12:34:11.385Z,12.90
2017-11-10T12:36:39.551Z,13.18
2017-11-10T12:39:07.737Z,13.10
2017-11-10T12:41:35.900Z,13.43
2017-11-10T12:44:04.068Z,14.85
2017-11-10T12:46:32.282Z,16.13
2017-11-10T12:49:00.994Z,15.32
2017-11-10T12:51:29.277Z,16.70
2017-11-10T12:53:58.192Z,16.95
2017-11-10T12:56:26.378Z,18.97
2017-11-10T12:58:54.586Z,17.15
2017-11-10T13:01:22.762Z,26.40
2017-11-10T13:03:50.929Z,17.75
2017-11-10T13:06:19.108Z,19.92
2017-11-10T13:08:47.261Z,20.23
2017-11-10T13:11:15.429Z,17.10
2017-11-10T13:13:43.588Z,18.00
2017-11-10T13:16:11.765Z,18.00
2017-11-10T13:18:39.926Z,18.12
2017-11-10T13:21:08.096Z,17.20
2017-11-10T13:23:46.160Z,16.23
2017-11-10T13:26:14.640Z,15.97
2017-11-10T13:28:42.814Z,17.05
2017-11-10T13:31:11.065Z,14.82
2017-11-10T13:33:39.221Z,14.52
2017-11-10T13:36:07.399Z,14.23
2017-11-10T13:38:35.978Z,15.98
2017-11-10T13:41:04.145Z,14.25
2017-11-10T13:43:32.302Z,13.35
2017-11-10T13:46:00.471Z,15.07
2017-11-10T13:48:28.641Z,17.37
2017-11-10T13:50:56.819Z,15.35
2017-11-10T13:53:24.972Z,16.48
2017-11-10T13:55:54.417Z,15.75
2017-11-10T13:58:22.582Z,16.27
2017-11-10T14:00:51.493Z,13.45
2017-11-10T14:03:19.653Z,16.30
2017-11-10T14:05:47.844Z,16.10
2017-11-10T14:08:16.024Z,14.07
2017-11-10T14:10:44.189Z,14.77
2017-11-10T14:13:12.377Z,15.00
2017-11-10T14:15:40.650Z,14.55
2017-11-10T14:18:08.873Z,12.93
2017-11-10T14:20:37.769Z,13.03
2017-11-10T14:23:05.937Z,15.20
2017-11-10T14:25:34.079Z,13.30
2017-11-10T14:28:03.012Z,13.07
2017-11-10T14:30:31.169Z,13.00
2017-11-10T14:32:59.467Z,12.90
2017-11-10T14:35:27.631Z,12.45
2017-11-10T14:37:55.800Z,14.85
2017-11-10T14:40:24.362Z,13.48
2017-11-10T14:42:52.536Z,12.65
2017-11-10T14:45:20.696Z,13.38
2017-11-10T14:47:49.632Z,13.00
2017-11-10T14:50:17.787Z,12.93
2017-11-10T14:52:45.972Z,10.85
2017-11-10T14:55:14.127Z,13.15
2017-11-10T14:57:42.332Z,12.20
2017-11-10T15:00:10.500Z,12.55
2017-11-10T15:02:39.098Z,10.20
2017-11-10T15:05:07.275Z,12.03
2017-11-10T15:07:35.468Z,11.85
2017-11-10T15:10:03.646Z,10.38
2017-11-10T15:12:32.580Z,11.85
2017-11-10T15:15:00.742Z,12.20
2017-11-10T15:17:28.907Z,10.93
2017-11-10T15:19:57.830Z,12.35
2017-11-10T15:22:26.003Z,12.65
2017-11-10T15:24:54.868Z,12.18
2017-11-10T15:27:23.074Z,12.10
2017-11-10T15:29:51.234Z,11.00
2017-11-10T15:32:19.407Z,11.88
2017-11-10T15:34:47.585Z,12.80
2017-11-10T15:37:15.740Z,11.32
2017-11-10T15:39:43.922Z,11.02
2017-11-10T15:42:12.124Z,10.45
2017-11-10T15:44:40.375Z,11.20
2017-11-10T15:47:08.565Z,11.27
2017-11-10T15:49:37.560Z,11.43
2017-11-10T15:52:05.730Z,13.35
2017-11-10T15:54:33.913Z,12.82
2017-11-10T15:57:02.065Z,15.05
2017-11-10T15:59:30.318Z,15.02
2017-11-10T16:01:58.468Z,14.27
2017-11-10T16:04:26.636Z,12.70
2017-11-10T16:06:55.560Z,12.80
2017-11-10T16:09:23.744Z,13.32
2017-11-10T16:11:51.912Z,11.82
2017-11-10T16:14:20.096Z,12.77
2017-11-10T16:16:48.249Z,11.88
2017-11-10T16:19:16.432Z,13.38
2017-11-10T16:21:44.576Z,13.55
2017-11-10T16:24:12.728Z,13.07
2017-11-10T16:26:42.124Z,11.75
2017-11-10T16:29:11.045Z,14.15
2017-11-10T16:31:39.214Z,13.40
2017-11-10T16:34:07.370Z,12.23
2017-11-10T16:36:36.344Z,12.30
2017-11-10T16:39:04.520Z,10.95
2017-11-10T16:41:33.461Z,14.00
2017-11-10T16:44:01.621Z,15.13
2017-11-10T16:46:29.839Z,10.70
2017-11-10T16:48:58.004Z,12.65
2017-11-10T16:51:26.182Z,12.15
2017-11-10T16:53:54.348Z,11.45
2017-11-10T16:56:22.955Z,12.93
2017-11-10T16:58:51.185Z,11.27
2017-11-10T17:01:19.350Z,13.13
2017-11-10T17:03:47.524Z,11.73
2017-11-10T17:06:15.694Z,10.13
2017-11-10T17:08:43.843Z,9.13
2017-11-10T17:11:12.773Z,10.55
2017-11-10T17:13:40.937Z,10.50
2017-11-10T17:16:09.126Z,9.88
2017-11-10T17:18:37.793Z,9.68
2017-11-10T17:21:06.314Z,8.95
2017-11-10T17:23:34.480Z,9.35
2017-11-10T17:26:02.629Z,10.38
2017-11-10T17:28:30.808Z,9.15
2017-11-10T17:30:58.968Z,10.40
2017-11-10T17:33:27.348Z,10.38
2017-11-10T17:35:55.529Z,8.02
2017-11-10T17:38:23.705Z,8.02
2017-11-10T17:40:51.884Z,9.25
2017-11-10T17:43:20.055Z,9.45
2017-11-10T17:45:48.243Z,8.43
2017-11-10T17:48:16.405Z,9.43
2017-11-10T17:50:44.567Z,7.53
2017-11-10T17:53:12.738Z,6.72
2017-11-10T17:55:40.909Z,5.53
2017-11-10T17:58:09.089Z,7.03
2017-11-10T18:00:37.285Z,8.05
2017-11-10T18:03:05.431Z,6.00
2017-11-10T18:05:33.599Z,4.82
2017-11-10T18:08:02.913Z,5.78
2017-11-10T18:10:31.076Z,3.92
2017-11-10T18:12:59.249Z,4.93
2017-11-10T18:15:27.424Z,4.15
2017-11-10T18:17:55.586Z,4.32
2017-11-10T18:20:23.753Z,4.25
2017-11-10T18:22:51.906Z,3.80
2017-11-10T18:25:20.130Z,4.20
2017-11-10T18:27:48.287Z,4.15
2017-11-10T18:30:16.465Z,3.45
2017-11-10T18:32:44.617Z,3.90
2017-11-10T18:35:12.781Z,4.03
2017-11-10T18:37:40.936Z,3.53
2017-11-10T18:40:09.099Z,3.75
2017-11-10T18:42:38.025Z,3.40
2017-11-10T18:45:06.220Z,3.35
2017-11-10T18:47:34.379Z,3.10
2017-11-10T18:50:02.543Z,2.87
2017-11-10T18:52:30.754Z,3.75
2017-11-10T18:55:02.748Z,3.50
2017-11-10T18:57:31.672Z,3.10
2017-11-10T18:59:59.856Z,3.60
2017-11-10T19:02:28.047Z,3.30
2017-11-10T19:04:56.210Z,3.22
2017-11-10T19:07:24.392Z,4.37
2017-11-10T19:09:52.548Z,2.83
2017-11-10T19:12:20.724Z,3.50
2017-11-10T19:14:48.908Z,3.42
2017-11-10T19:17:17.056Z,3.30
2017-11-10T19:19:45.199Z,3.03
2017-11-10T19:22:14.133Z,3.10
2017-11-10T19:24:42.279Z,2.30
2017-11-10T19:27:10.456Z,2.97
2017-11-10T19:29:38.596Z,2.92
2017-11-10T19:32:07.531Z,3.78
2017-11-10T19:34:35.680Z,3.53
2017-11-10T19:37:03.826Z,4.15
2017-11-10T19:39:32.788Z,2.60
2017-11-10T19:42:00.932Z,3.37
2017-11-10T19:44:29.088Z,3.17
2017-11-10T19:46:57.237Z,2.80
2017-11-10T19:49:26.194Z,3.15
2017-11-10T19:51:54.341Z,3.95
2017-11-10T19:54:22.519Z,3.62
2017-11-10T19:56:50.671Z,2.80
2017-11-10T19:59:18.827Z,2.78
2017-11-10T20:01:47.372Z,3.37
2017-11-10T20:04:15.533Z,2.80
2017-11-10T20:06:43.680Z,3.72
2017-11-10T20:09:11.885Z,2.53
2017-11-10T20:11:40.032Z,2.72
2017-11-10T20:14:08.173Z,2.72
2017-11-10T20:16:37.536Z,3.12
2017-11-10T20:19:05.691Z,3.62
2017-11-10T20:21:33.861Z,3.80
2017-11-10T20:24:02.001Z,2.85
2017-11-10T20:26:30.875Z,2.80
2017-11-10T20:28:59.816Z,4.20
2017-11-10T20:31:27.996Z,3.00
2017-11-10T20:33:56.146Z,3.08
2017-11-10T20:36:24.308Z,2.47
2017-11-10T20:38:52.460Z,2.92
2017-11-10T20:41:21.394Z,3.83
2017-11-10T20:43:49.550Z,2.40
2017-11-10T20:46:17.755Z,2.67
2017-11-10T20:48:45.899Z,3.45
2017-11-10T20:51:14.047Z,2.75
2017-11-10T20:53:43.164Z,3.15
2017-11-10T20:56:11.307Z,2.72
2017-11-10T20:58:40.864Z,3.30
2017-11-10T21:01:09.006Z,2.85
2017-11-10T21:03:37.641Z,3.55
2017-11-10T21:06:05.789Z,3.55
2017-11-10T21:08:33.956Z,3.78
2017-11-10T21:11:02.126Z,3.60
2017-11-10T21:13:30.288Z,2.90
2017-11-10T21:15:58.432Z,4.22
2017-11-10T21:18:27.673Z,4.00
2017-11-10T21:20:55.811Z,3.20
2017-11-10T21:23:24.743Z,4.12
2017-11-10T21:25:52.896Z,3.30
2017-11-10T21:28:21.081Z,3.47
2017-11-10T21:30:49.742Z,3.10
2017-11-10T21:33:17.892Z,3.20
2017-11-10T21:35:46.835Z,2.87
2017-11-10T21:38:14.991Z,3.10
2017-11-10T21:40:43.163Z,2.60
2017-11-10T21:43:11.316Z,2.95
2017-11-10T21:45:39.481Z,3.55
2017-11-10T21:48:07.632Z,3.28
2017-11-10T21:50:35.830Z,2.92
2017-11-10T21:53:05.443Z,4.50
2017-11-10T21:55:33.614Z,3.47
2017-11-10T21:58:01.764Z,2.92
2017-11-10T22:00:30.714Z,3.25
2017-11-10T22:02:58.856Z,3.40
2017-11-10T22:05:27.063Z,3.10
2017-11-10T22:07:55.217Z,3.53
2017-11-10T22:10:23.443Z,3.83
2017-11-10T22:12:51.775Z,2.95
2017-11-10T22:15:19.939Z,2.97
2017-11-10T22:17:48.684Z,4.18
2017-11-10T22:20:16.863Z,3.78
2017-11-10T22:22:45.789Z,3.05
2017-11-10T22:25:13.929Z,2.78
2017-11-10T22:27:42.869Z,3.40
2017-11-10T22:30:11.014Z,2.70
2017-11-10T22:32:39.181Z,3.33
2017-11-10T22:35:07.342Z,2.85
2017-11-10T22:37:35.561Z,2.42
2017-11-10T22:40:03.704Z,2.40
2017-11-10T22:42:32.043Z,2.28
2017-11-10T22:45:00.192Z,2.30
2017-11-10T22:47:28.345Z,1.80
2017-11-10T22:49:56.729Z,2.05
2017-11-10T22:52:24.893Z,2.67
2017-11-10T22:54:53.034Z,1.80
2017-11-10T22:57:22.028Z,2.80
2017-11-10T22:59:50.949Z,1.90
2017-11-10T23:02:19.541Z,2.40
2017-11-10T23:04:47.707Z,2.00
2017-11-10T23:07:15.869Z,2.17
2017-11-10T23:09:44.044Z,2.65
2017-11-10T23:12:12.189Z,2.55
2017-11-10T23:14:41.120Z,2.50
2017-11-10T23:17:09.296Z,2.53
2017-11-10T23:19:37.472Z,2.28
2017-11-10T23:22:05.641Z,2.75
2017-11-10T23:24:33.796Z,2.53
2017-11-10T23:27:02.843Z,2.25
2017-11-10T23:29:31.079Z,2.22
2017-11-10T23:31:59.216Z,2.45
2017-11-10T23:34:27.372Z,4.00
2017-11-10T23:36:56.287Z,3.05
2017-11-10T23:39:24.456Z,3.40
2017-11-10T23:41:52.602Z,2.08
2017-11-10T23:44:20.778Z,3.03
2017-11-10T23:46:49.709Z,2.30
2017-11-10T23:49:17.883Z,3.45
2017-11-10T23:51:46.072Z,2.47
2017-11-10T23:54:14.251Z,2.30
2017-11-10T23:56:42.405Z,2.28
2017-11-10T23:59:10.941Z,3.37
